Terminal Aerodrome Forecast
Issued by NWS

Current Version | Previous Version | Text Only | Print | Product List | Glossary On
Versions: 1 2 3 4 5 6 7 8 9 10 11 12 13
000
FTUS42 KTAE 062323
TAFVLD
TAF
KVLD 062323Z 0700/0724 06006KT P6SM SCT050 SCT250
      TEMPO 0709/0713 4SM BR=

USA.gov is the U.S. government's official web portal to all federal, state and local government web resources and services.